Flight Track Log - Related Links

Times and Time Zones

All times are in EDT time to prevent confusion due to time zone crossing. See the FLG4151 flight status page for this flight to view local times or setup timezone preferences in your user account.

Time Position Orientation Groundspeed Altitude Reporting Facility
EDT Latitude Longitude Course Direction KTS MPH feet Rate Location/Type
Sat 12:44:40 PM 42.1994 -83.3581 North 157 181 1,300  Level Cleveland Center
Sat 12:46:12 PM 42.1475 -83.4369 228° Southwest 208 239 4,500 2,118 Climbing Cleveland Center
Sat 12:47:13 PM 42.1558 -83.5214 278° West 271 312 6,700 2,541 Climbing Cleveland Center
Sat 12:48:00 PM 42.5438 -83.3500 North  Level FlightAware Approximate
Sat 12:48:03 PM 42.1914 -83.5933 304° West 265 305 9,200  Level Cleveland Center
Sat 12:49:00 PM 42.6297 -83.3500 North  Level FlightAware Approximate
Sat 12:49:10 PM 42.2653 -83.6444 333° Northwest 283 326 11,700  Level Cleveland Center
Sat 12:50:00 PM 42.7156 -83.3500 North  Level FlightAware Approximate
Sat 12:50:11 PM 42.3508 -83.6400 North 359 413 12,000  Level Cleveland Center
Sat 12:50:31 PM 42.3889 -83.6194 22° Northeast 353 406 12,000  Level Cleveland Center
Sat 12:51:31 PM 42.4711 -83.5783 20° North 401 461 12,000  Level Cleveland Center
Sat 12:52:31 PM 42.5578 -83.5375 19° North 350 403 12,000  Level Cleveland Center
Sat 12:53:31 PM 42.6442 -83.4964 19° North 330 380 12,000  Level Cleveland Center
Sat 12:54:31 PM 42.7308 -83.4550 19° North 324 373 12,000  Level Cleveland Center
Sat 12:55:31 PM 42.8194 -83.4139 19° North 330 380 12,000  Level Cleveland Center
Sat 12:56:31 PM 42.9058 -83.3725 19° North 330 380 12,000 -150 Level Cleveland Center
Sat 12:57:31 PM 42.9978 -83.3650 North 324 373 11,700 -500 Descending Cleveland Center
Sat 12:58:31 PM 43.0847 -83.3833 351° North 319 367 11,000 -550 Descending Cleveland Center
Sat 12:59:31 PM 43.1431 -83.4742 311° West 297 342 10,600 -1,000 Descending Cleveland Center
Sat 01:00:31 PM 43.1972 -83.5536 313° West 300 345 9,000 -1,650 Descending Cleveland Center
Sat 01:01:31 PM 43.2433 -83.6300 310° West 272 313 7,300 -1,700 Descending Cleveland Center
Sat 01:02:31 PM 43.2919 -83.6836 321° Northwest 254 292 5,600 -1,700 Descending Cleveland Center
Sat 01:03:31 PM 43.3508 -83.7408 325° Northwest 254 292 3,900 -1,500 Descending Cleveland Center
Sat 01:04:31 PM 43.4158 -83.7986 327° Northwest 254 292 2,600 -650 Descending Cleveland Center
Sat 01:05:31 PM 43.4728 -83.8500 327° Northwest 254 292 2,600  Level Cleveland Center
Sat 01:06:31 PM 43.5297 -83.9019 327° Northwest 254 292 2,600  Level Cleveland Center

Login

Don't have an account? Register now (free) for customized features, flight alerts, and more!